createdAt,value
2023-03-03T00:00:23.064Z,7.909
2023-03-03T00:01:22.930Z,7.867
2023-03-03T00:02:22.231Z,7.849
2023-03-03T00:03:22.935Z,7.821
2023-03-03T00:04:22.158Z,7.801
2023-03-03T00:05:21.745Z,7.795
2023-03-03T00:06:21.727Z,7.804
2023-03-03T00:07:21.832Z,7.775
2023-03-03T00:08:21.676Z,7.75
2023-03-03T00:09:21.867Z,7.744
2023-03-03T00:10:36.554Z,7.739
2023-03-03T00:11:21.684Z,7.704
2023-03-03T00:12:40.857Z,7.703
2023-03-03T00:13:22.112Z,7.683
2023-03-03T00:14:40.564Z,7.655
2023-03-03T00:15:22.111Z,7.631
2023-03-03T00:16:21.818Z,7.643
2023-03-03T00:17:21.943Z,7.625
2023-03-03T00:18:21.275Z,7.614
2023-03-03T00:19:21.932Z,7.594
2023-03-03T00:20:22.771Z,7.570
2023-03-03T00:21:21.927Z,7.572
2023-03-03T00:22:22.334Z,7.554
2023-03-03T00:23:21.676Z,7.559
2023-03-03T00:24:22.078Z,7.526
2023-03-03T00:25:21.624Z,7.530
2023-03-03T00:26:21.463Z,7.538
2023-03-03T00:27:21.716Z,7.513
2023-03-03T00:28:21.575Z,7.505
2023-03-03T00:29:22.335Z,7.485
2023-03-03T00:30:22.239Z,7.467
2023-03-03T00:31:21.939Z,7.467
2023-03-03T00:32:21.906Z,7.445
2023-03-03T00:33:21.659Z,7.429
2023-03-03T00:34:21.633Z,7.405
2023-03-03T00:35:21.526Z,7.389
2023-03-03T00:36:21.536Z,7.394
2023-03-03T00:37:22.046Z,7.394
2023-03-03T00:38:21.690Z,7.383
2023-03-03T00:39:22.029Z,7.361
2023-03-03T00:40:21.436Z,7.339
2023-03-03T00:41:22.259Z,7.327
2023-03-03T00:42:21.392Z,7.321
2023-03-03T00:43:21.682Z,7.304
2023-03-03T00:44:21.201Z,7.295
2023-03-03T00:45:21.778Z,7.264
2023-03-03T00:46:21.908Z,7.244
2023-03-03T00:47:21.253Z,7.239
2023-03-03T00:48:21.778Z,7.230
2023-03-03T00:49:21.868Z,7.224
2023-03-03T00:50:21.671Z,7.219
2023-03-03T00:51:21.587Z,7.183
2023-03-03T00:52:21.578Z,7.159
2023-03-03T00:53:20.017Z,7.143
2023-03-03T00:54:21.486Z,7.131
2023-03-03T00:55:21.636Z,7.114
2023-03-03T00:56:21.444Z,7.085
2023-03-03T00:57:22.127Z,7.070
2023-03-03T00:58:21.699Z,7.059
2023-03-03T00:59:21.698Z,7.045
2023-03-03T01:00:21.848Z,7.039
2023-03-03T01:01:24.128Z,7.025
2023-03-03T01:02:22.572Z,7.014
2023-03-03T01:03:21.747Z,6.960
2023-03-03T01:04:20.977Z,6.954
2023-03-03T01:05:21.701Z,6.949
2023-03-03T01:06:21.250Z,6.940
2023-03-03T01:07:21.644Z,6.920
2023-03-03T01:08:22.059Z,6.920
2023-03-03T01:09:21.216Z,6.909
2023-03-03T01:10:21.616Z,6.905
2023-03-03T01:11:21.746Z,6.861
2023-03-03T01:12:21.432Z,6.855
2023-03-03T01:13:21.580Z,6.849
2023-03-03T01:14:22.080Z,6.833
2023-03-03T01:15:21.926Z,6.821
2023-03-03T01:16:22.109Z,6.828
2023-03-03T01:17:20.872Z,6.822
2023-03-03T01:18:21.458Z,6.827
2023-03-03T01:19:21.666Z,6.804
2023-03-03T01:20:22.098Z,6.810
2023-03-03T01:21:21.570Z,6.800
2023-03-03T01:22:21.663Z,6.769
2023-03-03T01:23:21.677Z,6.769
2023-03-03T01:24:21.797Z,6.775
2023-03-03T01:25:21.626Z,6.744
2023-03-03T01:26:21.551Z,6.715
2023-03-03T01:27:21.612Z,6.715
2023-03-03T01:28:21.548Z,6.690
2023-03-03T01:29:21.894Z,6.699
2023-03-03T01:30:21.898Z,6.699
2023-03-03T01:31:21.249Z,6.699
2023-03-03T01:32:22.190Z,6.695
2023-03-03T01:33:21.388Z,6.684
2023-03-03T01:34:21.857Z,6.671
2023-03-03T01:35:22.420Z,6.638
2023-03-03T01:36:21.817Z,6.637
2023-03-03T01:37:22.238Z,6.625
2023-03-03T01:38:21.302Z,6.610
2023-03-03T01:39:22.017Z,6.594
2023-03-03T01:40:22.134Z,6.585
2023-03-03T01:41:21.499Z,6.565
2023-03-03T01:42:21.832Z,6.550
2023-03-03T01:43:21.001Z,6.543
2023-03-03T01:44:21.665Z,6.518
2023-03-03T01:45:22.339Z,6.505
2023-03-03T01:46:21.648Z,6.494
2023-03-03T01:47:21.856Z,6.489
2023-03-03T01:48:21.444Z,6.493
2023-03-03T01:49:21.656Z,6.480
2023-03-03T01:50:22.402Z,6.475
2023-03-03T01:51:21.864Z,6.450
2023-03-03T01:52:21.420Z,6.454
2023-03-03T01:53:20.859Z,6.434
2023-03-03T01:54:21.222Z,6.434
2023-03-03T01:55:21.662Z,6.449
2023-03-03T01:56:21.769Z,6.440
2023-03-03T01:57:21.880Z,6.454
2023-03-03T01:58:21.590Z,6.429
2023-03-03T01:59:22.088Z,6.379
2023-03-03T02:00:22.812Z,6.385
2023-03-03T02:01:22.695Z,6.409
2023-03-03T02:02:21.908Z,6.400
2023-03-03T02:03:22.370Z,6.400
2023-03-03T02:04:21.727Z,6.394
2023-03-03T02:05:22.622Z,6.389
2023-03-03T02:06:21.558Z,6.368
2023-03-03T02:07:21.901Z,6.374
2023-03-03T02:08:22.330Z,6.368
2023-03-03T02:09:22.316Z,6.349
2023-03-03T02:10:21.910Z,6.355
2023-03-03T02:11:21.991Z,6.355
2023-03-03T02:12:21.742Z,6.339
2023-03-03T02:13:21.620Z,6.327
2023-03-03T02:14:21.690Z,6.327
2023-03-03T02:15:22.072Z,6.322
2023-03-03T02:16:22.259Z,6.304
2023-03-03T02:17:21.853Z,6.304
2023-03-03T02:18:22.087Z,6.289
2023-03-03T02:19:21.631Z,6.264
2023-03-03T02:20:22.612Z,6.260
2023-03-03T02:21:21.894Z,6.269
2023-03-03T02:22:21.605Z,6.264
2023-03-03T02:23:22.601Z,6.269
2023-03-03T02:24:21.920Z,6.255
2023-03-03T02:25:21.881Z,6.239
2023-03-03T02:26:21.802Z,6.25
2023-03-03T02:27:22.160Z,6.25
2023-03-03T02:28:21.561Z,6.269
2023-03-03T02:29:22.174Z,6.269
2023-03-03T02:30:22.152Z,6.269
2023-03-03T02:31:21.736Z,6.260
2023-03-03T02:32:21.965Z,6.244
2023-03-03T02:33:21.620Z,6.255
2023-03-03T02:34:21.198Z,6.260
2023-03-03T02:35:21.700Z,6.255
2023-03-03T02:36:21.919Z,6.280
2023-03-03T02:37:21.583Z,6.25
2023-03-03T02:38:21.291Z,6.264
2023-03-03T02:39:21.865Z,6.275
2023-03-03T02:40:21.179Z,6.275
2023-03-03T02:41:21.219Z,6.280
2023-03-03T02:42:21.264Z,6.295
2023-03-03T02:43:21.123Z,6.309
2023-03-03T02:44:21.634Z,6.315
2023-03-03T02:45:21.891Z,6.327
2023-03-03T02:46:21.107Z,6.355
2023-03-03T02:47:20.987Z,6.374
2023-03-03T02:48:21.534Z,6.388
2023-03-03T02:49:21.455Z,6.414
2023-03-03T02:50:21.850Z,6.409
2023-03-03T02:51:21.699Z,6.405
2023-03-03T02:52:21.659Z,6.400
2023-03-03T02:53:21.946Z,6.425
2023-03-03T02:54:21.025Z,6.405
2023-03-03T02:55:21.519Z,6.429
2023-03-03T02:56:21.877Z,6.440
2023-03-03T02:57:21.269Z,6.460
2023-03-03T02:58:21.409Z,6.480
2023-03-03T02:59:21.586Z,6.465
2023-03-03T03:00:22.965Z,6.469
2023-03-03T03:01:22.396Z,6.469
2023-03-03T03:02:21.551Z,6.489
2023-03-03T03:03:22.009Z,6.494
2023-03-03T03:04:22.349Z,6.505
2023-03-03T03:05:21.473Z,6.495
2023-03-03T03:06:21.038Z,6.505
2023-03-03T03:07:21.341Z,6.521
2023-03-03T03:08:21.440Z,6.535
2023-03-03T03:09:21.563Z,6.527
2023-03-03T03:10:21.811Z,6.534
2023-03-03T03:11:21.277Z,6.508
2023-03-03T03:12:22.127Z,6.505
2023-03-03T03:13:21.595Z,6.514
2023-03-03T03:14:22.045Z,6.505
2023-03-03T03:15:21.954Z,6.539
2023-03-03T03:16:22.193Z,6.565
2023-03-03T03:17:21.785Z,6.565
2023-03-03T03:18:21.454Z,6.539
2023-03-03T03:19:21.684Z,6.554
2023-03-03T03:20:21.436Z,6.579
2023-03-03T03:21:22.289Z,6.559
2023-03-03T03:22:21.614Z,6.574
2023-03-03T03:23:21.402Z,6.585
2023-03-03T03:24:21.789Z,6.625
2023-03-03T03:25:22.347Z,6.599
2023-03-03T03:26:21.909Z,6.599
2023-03-03T03:27:21.213Z,6.574
2023-03-03T03:28:21.038Z,6.559
2023-03-03T03:29:20.933Z,6.550
2023-03-03T03:30:21.050Z,6.554
2023-03-03T03:31:21.394Z,6.574
2023-03-03T03:32:21.633Z,6.559
2023-03-03T03:33:21.593Z,6.579
2023-03-03T03:34:22.067Z,6.574
2023-03-03T03:35:21.756Z,6.559
2023-03-03T03:36:21.493Z,6.525
2023-03-03T03:37:21.943Z,6.525
2023-03-03T03:38:21.177Z,6.474
2023-03-03T03:39:21.817Z,6.445
2023-03-03T03:40:21.961Z,6.460
2023-03-03T03:41:21.753Z,6.480
2023-03-03T03:42:21.580Z,6.505
2023-03-03T03:43:21.761Z,6.485
2023-03-03T03:44:21.419Z,6.489
2023-03-03T03:45:22.032Z,6.469
2023-03-03T03:46:21.462Z,6.505
2023-03-03T03:47:21.980Z,6.460
2023-03-03T03:48:21.851Z,6.460
2023-03-03T03:49:21.172Z,6.485
2023-03-03T03:50:22.100Z,6.485
2023-03-03T03:51:21.884Z,6.425
2023-03-03T03:52:21.429Z,6.403
2023-03-03T03:53:22.167Z,6.405
2023-03-03T03:54:21.624Z,6.379
2023-03-03T03:55:22.174Z,6.394
2023-03-03T03:56:21.759Z,6.425
2023-03-03T03:57:22.209Z,6.445
2023-03-03T03:58:21.834Z,6.449
2023-03-03T03:59:21.898Z,6.434
2023-03-03T04:00:23.120Z,6.434
2023-03-03T04:01:21.808Z,6.434
2023-03-03T04:02:22.175Z,6.425
2023-03-03T04:03:22.281Z,6.414
2023-03-03T04:04:21.636Z,6.420
2023-03-03T04:05:22.219Z,6.434
2023-03-03T04:06:21.672Z,6.409
2023-03-03T04:07:22.244Z,6.414
2023-03-03T04:08:21.801Z,6.440
2023-03-03T04:09:21.803Z,6.445
2023-03-03T04:10:21.953Z,6.449
2023-03-03T04:11:22.514Z,6.405
2023-03-03T04:12:22.114Z,6.400
2023-03-03T04:13:21.810Z,6.420
2023-03-03T04:14:22.044Z,6.394
2023-03-03T04:15:21.808Z,6.399
2023-03-03T04:16:21.944Z,6.449
2023-03-03T04:17:21.511Z,6.445
2023-03-03T04:18:21.763Z,6.429
2023-03-03T04:19:21.946Z,6.409
2023-03-03T04:20:21.854Z,6.405
2023-03-03T04:21:22.232Z,6.394
2023-03-03T04:22:21.646Z,6.361
2023-03-03T04:23:21.349Z,6.339
2023-03-03T04:24:21.880Z,6.335
2023-03-03T04:25:21.866Z,6.356
2023-03-03T04:26:22.072Z,6.341
2023-03-03T04:27:21.246Z,6.361
2023-03-03T04:28:21.233Z,6.402
2023-03-03T04:29:21.445Z,6.401
2023-03-03T04:30:22.126Z,6.420
2023-03-03T04:31:22.594Z,6.425
2023-03-03T04:32:22.065Z,6.460
2023-03-03T04:33:21.799Z,6.474
2023-03-03T04:34:26.435Z,6.485
2023-03-03T04:35:21.578Z,6.505
2023-03-03T04:36:21.123Z,6.5
2023-03-03T04:37:21.602Z,6.5
2023-03-03T04:38:21.520Z,6.5
2023-03-03T04:39:21.734Z,6.534
2023-03-03T04:40:21.769Z,6.554
2023-03-03T04:41:21.623Z,6.514
2023-03-03T04:42:21.685Z,6.510
2023-03-03T04:43:21.916Z,6.514
2023-03-03T04:44:21.589Z,6.510
2023-03-03T04:45:22.732Z,6.519
2023-03-03T04:46:21.466Z,6.485
2023-03-03T04:47:21.877Z,6.510
2023-03-03T04:48:22.012Z,6.454
2023-03-03T04:49:21.862Z,6.414
2023-03-03T04:50:21.867Z,6.400
2023-03-03T04:51:22.364Z,6.379
2023-03-03T04:52:21.942Z,6.361
2023-03-03T04:53:21.647Z,6.379
2023-03-03T04:54:22.067Z,6.394
2023-03-03T04:55:21.672Z,6.389
2023-03-03T04:56:21.506Z,6.400
2023-03-03T04:57:21.798Z,6.394
2023-03-03T04:58:21.169Z,6.429
2023-03-03T04:59:21.692Z,6.449
2023-03-03T05:00:23.215Z,6.460
2023-03-03T05:01:21.809Z,6.474
2023-03-03T05:02:21.913Z,6.460
2023-03-03T05:03:20.915Z,6.474
2023-03-03T05:04:22.180Z,6.469
2023-03-03T05:05:22.063Z,6.454
2023-03-03T05:06:21.857Z,6.454
2023-03-03T05:07:21.642Z,6.454
2023-03-03T05:08:21.432Z,6.480
2023-03-03T05:09:21.790Z,6.445
2023-03-03T05:10:22.489Z,6.420
2023-03-03T05:11:21.762Z,6.429
2023-03-03T05:12:21.665Z,6.465
2023-03-03T05:13:21.372Z,6.454
2023-03-03T05:14:21.737Z,6.465
2023-03-03T05:15:22.064Z,6.485
2023-03-03T05:16:21.675Z,6.489
2023-03-03T05:17:22.115Z,6.485
2023-03-03T05:18:21.676Z,6.5
2023-03-03T05:19:21.669Z,6.434
2023-03-03T05:20:21.810Z,6.414
2023-03-03T05:21:21.379Z,6.405
2023-03-03T05:22:21.391Z,6.460
2023-03-03T05:23:21.703Z,6.434
2023-03-03T05:24:21.955Z,6.460
2023-03-03T05:25:22.228Z,6.440
2023-03-03T05:26:21.615Z,6.405
2023-03-03T05:27:21.705Z,6.380
2023-03-03T05:28:22.192Z,6.361
2023-03-03T05:29:22.214Z,6.379
2023-03-03T05:30:22.505Z,6.405
2023-03-03T05:31:22.134Z,6.355
2023-03-03T05:32:22.165Z,6.333
2023-03-03T05:33:21.570Z,6.355
2023-03-03T05:34:22.330Z,6.361
2023-03-03T05:35:22.129Z,6.309
2023-03-03T05:36:22.181Z,6.280
2023-03-03T05:37:21.720Z,6.269
2023-03-03T05:38:21.939Z,6.284
2023-03-03T05:39:21.802Z,6.275
2023-03-03T05:40:21.943Z,6.264
2023-03-03T05:41:21.398Z,6.271
2023-03-03T05:42:22.219Z,6.263
2023-03-03T05:43:21.830Z,6.269
2023-03-03T05:44:21.207Z,6.293
2023-03-03T05:45:21.702Z,6.342
2023-03-03T05:46:22.120Z,6.310
2023-03-03T05:47:21.515Z,6.264
2023-03-03T05:48:21.521Z,6.268
2023-03-03T05:49:21.954Z,6.266
2023-03-03T05:50:21.880Z,6.280
2023-03-03T05:51:22.013Z,6.315
2023-03-03T05:52:21.843Z,6.339
2023-03-03T05:53:21.336Z,6.322
2023-03-03T05:54:21.408Z,6.321
2023-03-03T05:55:21.870Z,6.289
2023-03-03T05:56:21.661Z,6.333
2023-03-03T05:57:21.697Z,6.339
2023-03-03T05:58:21.947Z,6.315
2023-03-03T05:59:21.589Z,6.304
2023-03-03T06:00:22.791Z,6.269
2023-03-03T06:01:22.147Z,6.269
2023-03-03T06:02:22.194Z,6.260
2023-03-03T06:03:22.133Z,6.239
2023-03-03T06:04:22.203Z,6.275
2023-03-03T06:05:22.394Z,6.284
2023-03-03T06:06:21.939Z,6.264
2023-03-03T06:07:22.074Z,6.255
2023-03-03T06:08:21.263Z,6.269
2023-03-03T06:09:21.785Z,6.264
2023-03-03T06:10:21.627Z,6.269
2023-03-03T06:11:21.972Z,6.215
2023-03-03T06:12:22.178Z,6.165
2023-03-03T06:13:22.284Z,6.189
2023-03-03T06:14:22.514Z,6.193
2023-03-03T06:15:21.648Z,6.235
2023-03-03T06:16:22.190Z,6.195
2023-03-03T06:17:21.935Z,6.204
2023-03-03T06:18:21.839Z,6.210
2023-03-03T06:19:21.431Z,6.215
2023-03-03T06:20:22.591Z,6.204
2023-03-03T06:21:22.673Z,6.159
2023-03-03T06:22:22.071Z,6.178
2023-03-03T06:23:21.992Z,6.165
2023-03-03T06:24:21.948Z,6.125
2023-03-03T06:25:21.448Z,6.114
2023-03-03T06:26:22.029Z,6.120
2023-03-03T06:27:21.710Z,6.177
2023-03-03T06:28:21.753Z,6.239
2023-03-03T06:29:21.667Z,6.264
2023-03-03T06:30:22.033Z,6.260
2023-03-03T06:31:21.838Z,6.269
2023-03-03T06:32:21.761Z,6.244
2023-03-03T06:33:21.716Z,6.199
2023-03-03T06:34:21.857Z,6.264
2023-03-03T06:35:21.509Z,6.269
2023-03-03T06:36:21.864Z,6.280
2023-03-03T06:37:21.631Z,6.235
2023-03-03T06:38:21.363Z,6.260
2023-03-03T06:39:21.880Z,6.260
2023-03-03T06:40:22.213Z,6.255
2023-03-03T06:41:21.526Z,6.295
2023-03-03T06:42:22.048Z,6.289
2023-03-03T06:43:21.658Z,6.255
2023-03-03T06:44:21.770Z,6.275
2023-03-03T06:45:22.504Z,6.284
2023-03-03T06:46:21.980Z,6.310
2023-03-03T06:47:21.298Z,6.310
2023-03-03T06:48:21.733Z,6.333
2023-03-03T06:49:21.716Z,6.333
2023-03-03T06:50:22.015Z,6.344
2023-03-03T06:51:22.497Z,6.400
2023-03-03T06:52:21.449Z,6.425
2023-03-03T06:53:21.976Z,6.425
2023-03-03T06:54:22.747Z,6.428
2023-03-03T06:55:22.365Z,6.430
2023-03-03T06:56:21.916Z,6.440
2023-03-03T06:57:21.733Z,6.445
2023-03-03T06:58:21.991Z,6.430
2023-03-03T06:59:22.052Z,6.434
2023-03-03T07:00:24.003Z,6.412
2023-03-03T07:01:23.132Z,6.407
2023-03-03T07:02:22.185Z,6.401
2023-03-03T07:03:29.499Z,6.409
2023-03-03T07:04:22.395Z,6.415
2023-03-03T07:05:21.817Z,6.428
2023-03-03T07:06:22.417Z,6.440
2023-03-03T07:07:22.081Z,6.434
2023-03-03T07:08:22.406Z,6.440
2023-03-03T07:09:21.987Z,6.400
2023-03-03T07:10:22.158Z,6.400
2023-03-03T07:11:21.437Z,6.385
2023-03-03T07:12:21.738Z,6.380
2023-03-03T07:13:21.402Z,6.389
2023-03-03T07:14:21.957Z,6.383
2023-03-03T07:15:22.300Z,6.400
2023-03-03T07:16:22.108Z,6.429
2023-03-03T07:17:22.099Z,6.454
2023-03-03T07:18:21.062Z,6.485
2023-03-03T07:19:22.058Z,6.489
2023-03-03T07:20:21.445Z,6.469
2023-03-03T07:21:21.891Z,6.474
2023-03-03T07:22:21.984Z,6.525
2023-03-03T07:23:21.559Z,6.494
2023-03-03T07:24:21.702Z,6.480
2023-03-03T07:25:22.454Z,6.445
2023-03-03T07:26:21.757Z,6.440
2023-03-03T07:27:21.431Z,6.465
2023-03-03T07:28:21.762Z,6.494
2023-03-03T07:29:22.259Z,6.585
2023-03-03T07:30:21.498Z,6.545
2023-03-03T07:31:21.225Z,6.550
2023-03-03T07:32:22.116Z,6.514
2023-03-03T07:33:21.632Z,6.519
2023-03-03T07:34:21.269Z,6.525
2023-03-03T07:35:22.178Z,6.525
2023-03-03T07:36:21.582Z,6.585
2023-03-03T07:37:21.322Z,6.665
2023-03-03T07:38:21.468Z,6.594
2023-03-03T07:39:22.064Z,6.565
2023-03-03T07:40:21.949Z,6.550
2023-03-03T07:41:21.555Z,6.519
2023-03-03T07:42:21.918Z,6.514
2023-03-03T07:43:22.105Z,6.505
2023-03-03T07:44:21.916Z,6.510
2023-03-03T07:45:21.983Z,6.545
2023-03-03T07:46:22.562Z,6.545
2023-03-03T07:47:21.529Z,6.579
2023-03-03T07:48:21.795Z,6.579
2023-03-03T07:49:21.541Z,6.579
2023-03-03T07:50:22.516Z,6.579
2023-03-03T07:51:21.501Z,6.625
2023-03-03T07:52:22.089Z,6.594
2023-03-03T07:53:22.123Z,6.599
2023-03-03T07:54:21.385Z,6.605
2023-03-03T07:55:22.113Z,6.590
2023-03-03T07:56:21.986Z,6.579
2023-03-03T07:57:21.778Z,6.585
2023-03-03T07:58:21.446Z,6.594
2023-03-03T07:59:22.090Z,6.655
2023-03-03T08:00:22.582Z,6.671
2023-03-03T08:01:22.233Z,6.649
2023-03-03T08:02:22.358Z,6.683
2023-03-03T08:03:22.188Z,6.698
2023-03-03T08:04:22.157Z,6.718
2023-03-03T08:05:22.396Z,6.698
2023-03-03T08:06:21.435Z,6.683
2023-03-03T08:07:22.387Z,6.686
2023-03-03T08:08:22.334Z,6.710
2023-03-03T08:09:21.399Z,6.671
2023-03-03T08:10:22.351Z,6.643
2023-03-03T08:11:22.322Z,6.650
2023-03-03T08:12:22.321Z,6.659
2023-03-03T08:13:21.906Z,6.659
2023-03-03T08:14:21.409Z,6.655
2023-03-03T08:15:22.045Z,6.677
2023-03-03T08:16:21.507Z,6.698
2023-03-03T08:17:22.254Z,6.659
2023-03-03T08:18:21.883Z,6.651
2023-03-03T08:19:21.278Z,6.689
2023-03-03T08:20:21.891Z,6.671
2023-03-03T08:21:21.467Z,6.683
2023-03-03T08:22:21.824Z,6.684
2023-03-03T08:23:22.380Z,6.682
2023-03-03T08:24:22.400Z,6.715
2023-03-03T08:25:22.241Z,6.754
2023-03-03T08:26:21.587Z,6.755
2023-03-03T08:27:22.309Z,6.755
2023-03-03T08:28:22.046Z,6.769
2023-03-03T08:29:22.088Z,6.755
2023-03-03T08:30:21.892Z,6.710
2023-03-03T08:31:38.469Z,6.739
2023-03-03T08:32:21.820Z,6.710
2023-03-03T08:33:21.900Z,6.724
2023-03-03T08:34:21.307Z,6.719
2023-03-03T08:35:21.469Z,6.75
2023-03-03T08:36:21.709Z,6.744
2023-03-03T08:37:22.025Z,6.764
2023-03-03T08:38:21.622Z,6.769
2023-03-03T08:39:22.171Z,6.730
2023-03-03T08:40:21.710Z,6.730
2023-03-03T08:41:22.355Z,6.75
2023-03-03T08:42:21.816Z,6.764
2023-03-03T08:43:21.876Z,6.828
2023-03-03T08:44:21.742Z,6.849
2023-03-03T08:45:21.814Z,6.873
2023-03-03T08:46:21.349Z,6.795
2023-03-03T08:47:21.772Z,6.821
2023-03-03T08:48:21.917Z,6.804
2023-03-03T08:49:21.312Z,6.839
2023-03-03T08:50:21.946Z,6.843
2023-03-03T08:51:22.055Z,6.885
2023-03-03T08:52:21.170Z,6.821
2023-03-03T08:53:21.652Z,6.885
2023-03-03T08:54:21.838Z,6.868
2023-03-03T08:55:21.961Z,6.880
2023-03-03T08:56:21.297Z,6.861
2023-03-03T08:57:21.931Z,6.833
2023-03-03T08:58:23.823Z,6.873
2023-03-03T08:59:21.882Z,6.894
2023-03-03T09:00:22.427Z,6.874
2023-03-03T09:01:22.827Z,6.868
2023-03-03T09:02:21.631Z,6.900
2023-03-03T09:03:21.779Z,6.920
2023-03-03T09:04:21.699Z,6.900
2023-03-03T09:05:21.550Z,6.885
2023-03-03T09:06:22.488Z,6.949
2023-03-03T09:07:22.226Z,7.014
2023-03-03T09:08:21.809Z,7.019
2023-03-03T09:09:21.968Z,7.014
2023-03-03T09:10:21.988Z,7.025
2023-03-03T09:11:22.150Z,7.025
2023-03-03T09:12:22.141Z,7.070
2023-03-03T09:13:22.288Z,7.110
2023-03-03T09:14:22.129Z,7.131
2023-03-03T09:15:21.984Z,7.153
2023-03-03T09:16:22.017Z,7.190
2023-03-03T09:17:22.143Z,7.189
2023-03-03T09:18:26.831Z,7.215
2023-03-03T09:19:21.162Z,7.215
2023-03-03T09:20:21.705Z,7.244
2023-03-03T09:21:21.517Z,7.244
2023-03-03T09:22:21.796Z,7.230
2023-03-03T09:23:21.670Z,7.239
2023-03-03T09:24:22.175Z,7.269
2023-03-03T09:25:22.216Z,7.260
2023-03-03T09:26:21.999Z,7.280
2023-03-03T09:27:22.418Z,7.300
2023-03-03T09:28:21.389Z,7.322
2023-03-03T09:29:22.032Z,7.349
2023-03-03T09:30:22.098Z,7.321
2023-03-03T09:31:22.303Z,7.327
2023-03-03T09:32:22.242Z,7.310
2023-03-03T09:33:22.091Z,7.315
2023-03-03T09:34:21.747Z,7.275
2023-03-03T09:35:22.520Z,7.25
2023-03-03T09:36:30.228Z,7.306
2023-03-03T09:37:21.710Z,7.329
2023-03-03T09:38:21.936Z,7.293
2023-03-03T09:39:22.135Z,7.264
2023-03-03T09:40:22.066Z,7.276
2023-03-03T09:41:22.018Z,7.300
2023-03-03T09:42:22.105Z,7.280
2023-03-03T09:43:21.974Z,7.259
2023-03-03T09:44:21.387Z,7.271
2023-03-03T09:45:22.709Z,7.333
2023-03-03T09:46:22.226Z,7.376
2023-03-03T09:47:22.376Z,7.366
2023-03-03T09:48:21.664Z,7.372
2023-03-03T09:49:23.413Z,7.388
2023-03-03T09:50:21.876Z,7.385
2023-03-03T09:51:21.500Z,7.405
2023-03-03T09:52:21.845Z,7.383
2023-03-03T09:53:22.401Z,7.388
2023-03-03T09:54:22.208Z,7.423
2023-03-03T09:55:25.168Z,7.434
2023-03-03T09:56:22.181Z,7.425
2023-03-03T09:57:21.384Z,7.434
2023-03-03T09:58:21.532Z,7.429
2023-03-03T09:59:22.146Z,7.400
2023-03-03T10:00:22.430Z,7.434
2023-03-03T10:01:21.878Z,7.489
2023-03-03T10:02:22.171Z,7.510
2023-03-03T10:03:22.273Z,7.469
2023-03-03T10:04:21.861Z,7.474
2023-03-03T10:05:21.574Z,7.434
2023-03-03T10:06:22.215Z,7.449
2023-03-03T10:07:22.046Z,7.434
2023-03-03T10:08:21.828Z,7.429
2023-03-03T10:09:22.209Z,7.425
2023-03-03T10:10:22.511Z,7.394
2023-03-03T10:11:21.880Z,7.389
2023-03-03T10:12:22.105Z,7.389
2023-03-03T10:13:21.730Z,7.465
2023-03-03T10:14:22.188Z,7.469
2023-03-03T10:15:22.121Z,7.465
2023-03-03T10:16:22.105Z,7.514
2023-03-03T10:17:21.666Z,7.530
2023-03-03T10:18:22.271Z,7.559
2023-03-03T10:19:22.246Z,7.585
2023-03-03T10:20:22.878Z,7.605
2023-03-03T10:21:22.163Z,7.610
2023-03-03T10:22:22.179Z,7.643
2023-03-03T10:23:21.748Z,7.649
2023-03-03T10:24:22.172Z,7.715
2023-03-03T10:25:21.692Z,7.739
2023-03-03T10:26:29.005Z,7.806
2023-03-03T10:27:22.234Z,7.839
2023-03-03T10:28:21.628Z,7.827
2023-03-03T10:29:22.556Z,7.885
2023-03-03T10:30:38.426Z,7.949
2023-03-03T10:31:28.381Z,7.940
2023-03-03T10:32:22.828Z,7.920
2023-03-03T10:33:22.593Z,7.905
2023-03-03T10:34:21.971Z,7.934
2023-03-03T10:35:22.067Z,7.900
2023-03-03T10:36:21.743Z,7.934
2023-03-03T10:37:21.793Z,7.925
2023-03-03T10:38:21.863Z,7.929
2023-03-03T10:39:22.056Z,7.920
2023-03-03T10:40:22.310Z,7.914
2023-03-03T10:41:21.962Z,7.868
2023-03-03T10:42:21.674Z,7.905
2023-03-03T10:43:31.045Z,7.969
2023-03-03T10:44:21.905Z,8.024
2023-03-03T10:45:22.268Z,8.015
2023-03-03T10:46:21.496Z,7.985
2023-03-03T10:47:22.396Z,7.974
2023-03-03T10:48:22.144Z,7.969
2023-03-03T10:49:22.213Z,7.960
2023-03-03T10:50:22.519Z,7.949
2023-03-03T10:51:22.099Z,7.965
2023-03-03T10:52:22.082Z,7.989
2023-03-03T10:53:21.960Z,7.961
2023-03-03T10:54:21.811Z,7.962
2023-03-03T10:55:21.861Z,7.925
2023-03-03T10:56:21.662Z,7.901
2023-03-03T10:57:21.844Z,7.862
2023-03-03T10:58:22.030Z,7.855
2023-03-03T10:59:22.502Z,7.835
2023-03-03T11:00:22.930Z,7.815
2023-03-03T11:01:24.489Z,7.835
2023-03-03T11:02:21.855Z,7.827
2023-03-03T11:03:21.275Z,7.857
2023-03-03T11:04:22.489Z,7.889
2023-03-03T11:05:22.949Z,7.925
2023-03-03T11:06:23.099Z,7.980
2023-03-03T11:07:22.307Z,8.029
2023-03-03T11:08:22.752Z,8.079
2023-03-03T11:09:22.453Z,8.060
2023-03-03T11:10:22.092Z,8.079
2023-03-03T11:11:21.601Z,8.142
2023-03-03T11:12:22.775Z,8.159
2023-03-03T11:13:22.067Z,8.204
2023-03-03T11:14:21.900Z,8.286
2023-03-03T11:15:22.211Z,8.430
2023-03-03T11:16:21.869Z,8.338
2023-03-03T11:17:22.331Z,8.326
2023-03-03T11:18:25.774Z,8.333
2023-03-03T11:19:22.223Z,8.378
2023-03-03T11:20:22.449Z,8.399
2023-03-03T11:21:22.249Z,8.479
2023-03-03T11:22:21.748Z,8.404
2023-03-03T11:23:22.059Z,8.425
2023-03-03T11:24:24.113Z,8.425
2023-03-03T11:25:22.708Z,8.373
2023-03-03T11:26:21.728Z,8.404
2023-03-03T11:27:23.174Z,8.362
2023-03-03T11:28:22.470Z,8.399
2023-03-03T11:29:21.844Z,8.454
2023-03-03T11:30:22.021Z,8.479
2023-03-03T11:31:21.569Z,8.454
2023-03-03T11:32:22.189Z,8.470
2023-03-03T11:33:21.618Z,8.465
2023-03-03T11:34:21.425Z,8.510
2023-03-03T11:35:21.915Z,8.555
2023-03-03T11:36:21.375Z,8.515
2023-03-03T11:37:21.366Z,8.515
2023-03-03T11:38:21.722Z,8.555
2023-03-03T11:39:22.209Z,8.534
2023-03-03T11:40:21.735Z,8.510
2023-03-03T11:41:21.832Z,8.524
2023-03-03T11:42:23.625Z,8.534
2023-03-03T11:43:35.603Z,8.626
2023-03-03T11:44:21.751Z,8.620
2023-03-03T11:45:22.804Z,8.699
2023-03-03T11:46:21.691Z,8.729
2023-03-03T11:47:21.823Z,8.760
2023-03-03T11:48:21.476Z,8.75
2023-03-03T11:49:21.495Z,8.755
2023-03-03T11:50:22.192Z,8.770
2023-03-03T11:51:20.915Z,8.826
2023-03-03T11:52:21.643Z,8.861
2023-03-03T11:53:21.485Z,8.883
2023-03-03T11:54:21.495Z,8.845
2023-03-03T11:55:30.131Z,8.789
2023-03-03T11:56:21.390Z,8.755
2023-03-03T11:57:29.917Z,8.729
2023-03-03T11:58:21.866Z,8.704
2023-03-03T11:59:22.084Z,8.744
2023-03-03T12:00:23.043Z,8.817
2023-03-03T12:01:35.600Z,8.850
2023-03-03T12:02:21.876Z,8.861
2023-03-03T12:03:21.411Z,8.914
2023-03-03T12:04:22.147Z,8.914
2023-03-03T12:05:21.871Z,8.944
2023-03-03T12:06:21.600Z,8.979
2023-03-03T12:07:22.227Z,9.010
2023-03-03T12:08:21.443Z,9.045
2023-03-03T12:09:21.668Z,9.050
2023-03-03T12:10:22.757Z,9.043
2023-03-03T12:11:35.726Z,9.046
2023-03-03T12:12:22.208Z,9.064
2023-03-03T12:13:21.881Z,9.060
2023-03-03T12:14:21.844Z,9.050
2023-03-03T12:15:36.150Z,9.010
2023-03-03T12:16:22.405Z,9.032
2023-03-03T12:17:21.887Z,9.074
2023-03-03T12:18:21.432Z,9.137
2023-03-03T12:19:22.054Z,9.171
2023-03-03T12:20:21.814Z,9.142
2023-03-03T12:21:22.316Z,9.095
2023-03-03T12:22:21.292Z,9.119
2023-03-03T12:23:22.087Z,9.125
2023-03-03T12:24:22.222Z,9.121
2023-03-03T12:25:21.645Z,9.090
2023-03-03T12:26:21.665Z,9.074
2023-03-03T12:27:21.870Z,9.055
2023-03-03T12:28:21.150Z,9.104
2023-03-03T12:29:21.873Z,9.131
2023-03-03T12:30:22.334Z,9.177
2023-03-03T12:31:44.187Z,9.210
2023-03-03T12:32:22.278Z,9.244
2023-03-03T12:33:22.051Z,9.210
2023-03-03T12:34:21.801Z,9.187
2023-03-03T12:35:22.642Z,9.187
2023-03-03T12:36:21.965Z,9.208
2023-03-03T12:38:23.147Z,9.25
2023-03-03T12:39:34.158Z,9.255
2023-03-03T12:40:22.133Z,9.199
2023-03-03T12:42:23.025Z,9.178
2023-03-03T12:43:21.859Z,9.215
2023-03-03T12:44:21.634Z,9.239
2023-03-03T12:45:22.164Z,9.270
2023-03-03T12:46:28.502Z,9.300
2023-03-03T12:47:23.344Z,9.333
2023-03-03T12:48:21.428Z,9.322
2023-03-03T12:49:21.503Z,9.328
2023-03-03T12:50:21.879Z,9.355
2023-03-03T12:51:21.771Z,9.345
2023-03-03T12:52:21.748Z,9.362
2023-03-03T12:53:21.488Z,9.345
2023-03-03T12:54:22.021Z,9.315
2023-03-03T12:55:21.684Z,9.274